Pagina principale
METAR-TAF:

METAR-TAF

Aeroporti :

Jijel, Algeria

latitudine: 36-53N, longitudine: 005-49E, altezza: 2 m

Osservazione

Il bollettino è stato emesso 1 ora e 1 minuti fa, alle 03:00 UTC
Vento 3 kt da sud
Temperature 13°C
Umidità 82%
Pressione 1024 hPa
Visibilità: 8000 m
Poco nuvoloso ad un'altezza di 2000 ft
Nuvoloso ad un'altezza di 4000 ft

METAR: DAAV 270300Z 19003KT 8000 FEW020 BKN040 13/10 Q1024

Ora: 05:01 (04:01 UTC)

Previsione

Il bollettino è stato emesso 5 ore e 1 minuti fa, alle 23:00 UTC
Previsione valida dal 27 alle 00 UTC al 27 alle 24 UTC
Vento 8 kt da ovest/nord-ovest
Visibilità: 7000 m
Nubi sparse ad un'altezza di 1500 ft

TAF: DAAV 262300Z 2700/2724 30008KT 7000 SCT015

Osservazioni e previsioni meteorologiche di più di 4000 aeroporti (messaggi METAR e TAF).

Le stazioni disponibili sono rappresentate dai dischi gialli e rossi sulla carta.

Puntare il mouse per vedere il nome della stazione.

Clicca sopra per visualizzare le osservazioni e previsioni meteorologiche.

Per cambiare la mappa : fare clic sui pulsanti verdi con una croce nera per ingrandire, il pulsante verde con un trattino per diminuire, o sulla freccia verde per le mappe adiacenti.


METAR-TAF: